sensor_id;sensor_type;location;lat;lon;timestamp;pressure;altitude;pressure_sealevel;temperature;humidity
41202;BME280;26936;50.524;8.684;2023-12-29T00:01:12;99099.91;;;9.05;97.57
41202;BME280;26936;50.524;8.684;2023-12-29T00:03:38;99090.78;;;9.14;96.05
41202;BME280;26936;50.524;8.684;2023-12-29T00:06:03;99092.94;;;9.10;96.06
41202;BME280;26936;50.524;8.684;2023-12-29T00:08:28;99102.25;;;9.19;94.52
41202;BME280;26936;50.524;8.684;2023-12-29T00:10:54;99094.63;;;9.20;94.27
41202;BME280;26936;50.524;8.684;2023-12-29T00:13:19;99083.03;;;9.18;93.71
41202;BME280;26936;50.524;8.684;2023-12-29T00:15:51;99083.25;;;9.11;92.83
41202;BME280;26936;50.524;8.684;2023-12-29T00:18:16;99083.13;;;9.14;92.21
41202;BME280;26936;50.524;8.684;2023-12-29T00:20:42;99077.19;;;9.12;91.57
41202;BME280;26936;50.524;8.684;2023-12-29T00:23:07;99072.13;;;9.07;92.04
41202;BME280;26936;50.524;8.684;2023-12-29T00:25:35;99068.09;;;9.08;92.27
41202;BME280;26936;50.524;8.684;2023-12-29T00:28:02;99060.00;;;8.98;92.16
41202;BME280;26936;50.524;8.684;2023-12-29T00:30:27;99058.44;;;8.97;92.23
41202;BME280;26936;50.524;8.684;2023-12-29T00:32:54;99055.28;;;8.95;91.68
41202;BME280;26936;50.524;8.684;2023-12-29T00:35:20;99057.19;;;8.98;90.63
41202;BME280;26936;50.524;8.684;2023-12-29T00:37:45;99046.41;;;8.96;90.50
41202;BME280;26936;50.524;8.684;2023-12-29T00:40:11;99048.56;;;8.92;91.04
41202;BME280;26936;50.524;8.684;2023-12-29T00:42:36;99062.16;;;8.94;90.37
41202;BME280;26936;50.524;8.684;2023-12-29T00:45:01;99059.56;;;8.87;90.97
41202;BME280;26936;50.524;8.684;2023-12-29T00:47:26;99047.53;;;8.86;91.25
41202;BME280;26936;50.524;8.684;2023-12-29T00:49:52;99047.63;;;8.83;91.44
41202;BME280;26936;50.524;8.684;2023-12-29T00:52:17;99056.50;;;8.81;92.15
41202;BME280;26936;50.524;8.684;2023-12-29T00:54:43;99055.84;;;8.77;92.27
41202;BME280;26936;50.524;8.684;2023-12-29T00:57:09;99050.44;;;8.70;94.49
41202;BME280;26936;50.524;8.684;2023-12-29T00:59:37;99049.09;;;8.62;96.56
41202;BME280;26936;50.524;8.684;2023-12-29T01:02:03;99050.44;;;8.58;98.32
41202;BME280;26936;50.524;8.684;2023-12-29T01:04:28;99049.66;;;8.57;99.03
41202;BME280;26936;50.524;8.684;2023-12-29T01:06:54;99050.78;;;8.60;98.81
41202;BME280;26936;50.524;8.684;2023-12-29T01:09:19;99051.09;;;8.62;98.53
41202;BME280;26936;50.524;8.684;2023-12-29T01:11:44;99055.59;;;8.59;98.55
41202;BME280;26936;50.524;8.684;2023-12-29T01:14:09;99044.69;;;8.49;99.87
41202;BME280;26936;50.524;8.684;2023-12-29T01:16:35;99046.94;;;8.54;99.08
41202;BME280;26936;50.524;8.684;2023-12-29T01:19:00;99045.03;;;8.63;97.89
41202;BME280;26936;50.524;8.684;2023-12-29T01:21:26;99044.16;;;8.66;96.53
41202;BME280;26936;50.524;8.684;2023-12-29T01:23:51;99043.38;;;8.78;95.61
41202;BME280;26936;50.524;8.684;2023-12-29T01:26:16;99043.50;;;8.87;94.57
41202;BME280;26936;50.524;8.684;2023-12-29T01:28:41;99042.03;;;8.95;94.54
41202;BME280;26936;50.524;8.684;2023-12-29T01:31:07;99037.63;;;8.94;94.52
41202;BME280;26936;50.524;8.684;2023-12-29T01:33:34;99039.44;;;9.01;94.49
41202;BME280;26936;50.524;8.684;2023-12-29T01:35:59;99035.72;;;9.04;93.93
41202;BME280;26936;50.524;8.684;2023-12-29T01:38:24;99027.28;;;9.04;94.55
41202;BME280;26936;50.524;8.684;2023-12-29T01:40:50;99015.94;;;9.07;93.61
41202;BME280;26936;50.524;8.684;2023-12-29T01:43:15;99022.44;;;9.17;91.03
41202;BME280;26936;50.524;8.684;2023-12-29T01:45:40;99021.19;;;9.30;89.83
41202;BME280;26936;50.524;8.684;2023-12-29T01:48:06;99020.03;;;9.40;88.57
41202;BME280;26936;50.524;8.684;2023-12-29T01:50:33;99008.81;;;9.40;87.33
41202;BME280;26936;50.524;8.684;2023-12-29T01:52:59;99012.03;;;9.51;85.99
41202;BME280;26936;50.524;8.684;2023-12-29T01:55:25;99010.81;;;9.52;86.10
41202;BME280;26936;50.524;8.684;2023-12-29T01:57:51;99017.97;;;9.53;85.93
41202;BME280;26936;50.524;8.684;2023-12-29T02:00:17;99016.72;;;9.67;83.71
41202;BME280;26936;50.524;8.684;2023-12-29T02:02:43;99011.66;;;9.62;84.06
41202;BME280;26936;50.524;8.684;2023-12-29T02:05:13;99012.75;;;9.64;83.45
41202;BME280;26936;50.524;8.684;2023-12-29T02:07:40;99013.97;;;9.76;82.67
41202;BME280;26936;50.524;8.684;2023-12-29T02:10:06;99009.94;;;9.77;81.91
41202;BME280;26936;50.524;8.684;2023-12-29T02:12:31;99005.84;;;9.78;81.81
41202;BME280;26936;50.524;8.684;2023-12-29T02:14:57;98994.59;;;9.78;82.08
41202;BME280;26936;50.524;8.684;2023-12-29T02:17:26;98996.75;;;9.74;81.35
41202;BME280;26936;50.524;8.684;2023-12-29T02:19:52;98997.47;;;9.66;81.10
41202;BME280;26936;50.524;8.684;2023-12-29T02:22:18;98994.84;;;9.71;81.31
41202;BME280;26936;50.524;8.684;2023-12-29T02:24:51;98999.38;;;9.69;81.91
41202;BME280;26936;50.524;8.684;2023-12-29T02:27:25;98995.19;;;9.73;81.08
41202;BME280;26936;50.524;8.684;2023-12-29T02:32:36;98997.22;;;9.73;81.22
41202;BME280;26936;50.524;8.684;2023-12-29T02:35:03;99002.94;;;9.69;81.39
41202;BME280;26936;50.524;8.684;2023-12-29T02:37:30;99000.69;;;9.77;80.27
41202;BME280;26936;50.524;8.684;2023-12-29T02:39:59;98999.66;;;9.83;79.96
41202;BME280;26936;50.524;8.684;2023-12-29T02:42:24;99006.38;;;9.86;80.26
41202;BME280;26936;50.524;8.684;2023-12-29T02:44:49;99003.25;;;9.84;79.74
41202;BME280;26936;50.524;8.684;2023-12-29T02:47:15;98988.53;;;9.80;80.09
41202;BME280;26936;50.524;8.684;2023-12-29T02:49:42;99000.28;;;9.87;79.77
41202;BME280;26936;50.524;8.684;2023-12-29T02:52:07;99002.59;;;9.80;80.10
41202;BME280;26936;50.524;8.684;2023-12-29T02:54:32;98994.66;;;9.87;79.52
41202;BME280;26936;50.524;8.684;2023-12-29T02:56:57;99004.88;;;9.94;79.49
41202;BME280;26936;50.524;8.684;2023-12-29T02:59:23;99008.03;;;9.96;80.10
41202;BME280;26936;50.524;8.684;2023-12-29T03:01:48;98990.81;;;9.94;79.65
41202;BME280;26936;50.524;8.684;2023-12-29T03:04:13;98998.16;;;9.91;79.96
41202;BME280;26936;50.524;8.684;2023-12-29T03:06:40;98988.78;;;9.94;80.26
41202;BME280;26936;50.524;8.684;2023-12-29T03:09:06;98989.25;;;9.93;79.88
41202;BME280;26936;50.524;8.684;2023-12-29T03:11:31;98984.22;;;9.88;80.04
41202;BME280;26936;50.524;8.684;2023-12-29T03:13:57;98974.97;;;9.87;80.21
41202;BME280;26936;50.524;8.684;2023-12-29T03:16:22;98978.38;;;9.82;80.50
41202;BME280;26936;50.524;8.684;2023-12-29T03:18:47;98965.56;;;9.81;80.58
41202;BME280;26936;50.524;8.684;2023-12-29T03:21:13;98948.22;;;9.83;80.43
41202;BME280;26936;50.524;8.684;2023-12-29T03:23:38;98960.41;;;9.80;80.49
41202;BME280;26936;50.524;8.684;2023-12-29T03:26:04;98945.38;;;9.74;81.27
41202;BME280;26936;50.524;8.684;2023-12-29T03:28:29;98946.13;;;9.74;80.94
41202;BME280;26936;50.524;8.684;2023-12-29T03:30:54;98938.94;;;9.73;81.41
41202;BME280;26936;50.524;8.684;2023-12-29T03:33:20;98936.81;;;9.77;81.64
41202;BME280;26936;50.524;8.684;2023-12-29T03:35:45;98927.44;;;9.80;81.88
41202;BME280;26936;50.524;8.684;2023-12-29T03:38:10;98936.72;;;9.90;81.25
41202;BME280;26936;50.524;8.684;2023-12-29T03:40:35;98937.94;;;9.89;81.39
41202;BME280;26936;50.524;8.684;2023-12-29T03:43:01;98931.44;;;9.92;81.21
41202;BME280;26936;50.524;8.684;2023-12-29T03:45:26;98922.41;;;9.97;81.32
41202;BME280;26936;50.524;8.684;2023-12-29T03:47:51;98933.91;;;9.90;81.52
41202;BME280;26936;50.524;8.684;2023-12-29T03:50:16;98929.47;;;10.01;81.21
41202;BME280;26936;50.524;8.684;2023-12-29T03:52:42;98931.47;;;10.01;81.42
41202;BME280;26936;50.524;8.684;2023-12-29T03:55:07;98933.66;;;9.97;81.60
41202;BME280;26936;50.524;8.684;2023-12-29T03:57:32;98926.63;;;10.01;81.13
41202;BME280;26936;50.524;8.684;2023-12-29T03:59:58;98921.94;;;9.98;81.43
41202;BME280;26936;50.524;8.684;2023-12-29T04:02:23;98930.22;;;10.02;81.88
41202;BME280;26936;50.524;8.684;2023-12-29T04:04:48;98934.50;;;10.06;81.67
41202;BME280;26936;50.524;8.684;2023-12-29T04:07:13;98930.84;;;9.97;82.03
41202;BME280;26936;50.524;8.684;2023-12-29T04:09:39;98918.34;;;9.98;82.05
41202;BME280;26936;50.524;8.684;2023-12-29T04:12:04;98923.97;;;9.98;82.16
41202;BME280;26936;50.524;8.684;2023-12-29T04:14:29;98916.31;;;9.98;82.29
41202;BME280;26936;50.524;8.684;2023-12-29T04:16:55;98920.47;;;9.94;82.79
41202;BME280;26936;50.524;8.684;2023-12-29T04:19:20;98916.13;;;9.93;82.43
41202;BME280;26936;50.524;8.684;2023-12-29T04:21:45;98913.81;;;10.00;82.32
41202;BME280;26936;50.524;8.684;2023-12-29T04:24:10;98910.84;;;10.04;82.37
41202;BME280;26936;50.524;8.684;2023-12-29T04:26:36;98917.34;;;10.13;81.74
41202;BME280;26936;50.524;8.684;2023-12-29T04:29:02;98903.75;;;10.12;81.88
41202;BME280;26936;50.524;8.684;2023-12-29T04:31:27;98901.66;;;10.03;82.23
41202;BME280;26936;50.524;8.684;2023-12-29T04:33:52;98888.94;;;9.99;82.63
41202;BME280;26936;50.524;8.684;2023-12-29T04:36:18;98895.28;;;10.12;82.26
41202;BME280;26936;50.524;8.684;2023-12-29T04:38:43;98889.66;;;10.12;81.83
41202;BME280;26936;50.524;8.684;2023-12-29T04:41:08;98886.34;;;10.04;82.76
41202;BME280;26936;50.524;8.684;2023-12-29T04:43:36;98886.00;;;10.02;82.83
41202;BME280;26936;50.524;8.684;2023-12-29T04:46:01;98873.81;;;10.05;82.79
41202;BME280;26936;50.524;8.684;2023-12-29T04:48:27;98886.66;;;10.06;82.64
41202;BME280;26936;50.524;8.684;2023-12-29T04:50:52;98868.66;;;10.04;82.69
41202;BME280;26936;50.524;8.684;2023-12-29T04:53:17;98891.00;;;9.98;83.19
41202;BME280;26936;50.524;8.684;2023-12-29T04:55:43;98876.13;;;9.98;83.31
41202;BME280;26936;50.524;8.684;2023-12-29T04:58:08;98881.97;;;10.03;82.99
41202;BME280;26936;50.524;8.684;2023-12-29T05:00:33;98885.53;;;10.04;83.31
41202;BME280;26936;50.524;8.684;2023-12-29T05:02:59;98892.09;;;10.01;83.11
41202;BME280;26936;50.524;8.684;2023-12-29T05:05:24;98897.72;;;10.01;83.01
41202;BME280;26936;50.524;8.684;2023-12-29T05:07:49;98889.59;;;10.03;83.32
41202;BME280;26936;50.524;8.684;2023-12-29T05:10:14;98884.44;;;10.01;83.36
41202;BME280;26936;50.524;8.684;2023-12-29T05:12:40;98887.72;;;10.00;83.70
41202;BME280;26936;50.524;8.684;2023-12-29T05:15:06;98891.00;;;9.98;83.83
41202;BME280;26936;50.524;8.684;2023-12-29T05:17:31;98901.84;;;10.09;83.85
41202;BME280;26936;50.524;8.684;2023-12-29T05:19:56;98905.00;;;10.11;83.80
41202;BME280;26936;50.524;8.684;2023-12-29T05:22:22;98899.09;;;10.18;83.05
41202;BME280;26936;50.524;8.684;2023-12-29T05:24:47;98905.63;;;10.15;83.57
41202;BME280;26936;50.524;8.684;2023-12-29T05:27:12;98905.50;;;10.18;83.72
41202;BME280;26936;50.524;8.684;2023-12-29T05:29:38;98908.44;;;10.15;83.44
41202;BME280;26936;50.524;8.684;2023-12-29T05:32:04;98912.56;;;10.23;83.27
41202;BME280;26936;50.524;8.684;2023-12-29T05:34:30;98924.25;;;10.21;83.56
41202;BME280;26936;50.524;8.684;2023-12-29T05:36:55;98896.00;;;10.25;83.31
41202;BME280;26936;50.524;8.684;2023-12-29T05:39:20;98900.31;;;10.17;83.55
41202;BME280;26936;50.524;8.684;2023-12-29T05:41:46;98887.38;;;10.19;83.59
41202;BME280;26936;50.524;8.684;2023-12-29T05:44:11;98895.22;;;10.24;83.64
41202;BME280;26936;50.524;8.684;2023-12-29T05:46:36;98907.38;;;10.21;83.48
41202;BME280;26936;50.524;8.684;2023-12-29T05:49:01;98925.31;;;10.15;83.78
41202;BME280;26936;50.524;8.684;2023-12-29T05:51:27;98916.94;;;10.24;83.51
41202;BME280;26936;50.524;8.684;2023-12-29T05:53:52;98900.66;;;10.19;83.89
41202;BME280;26936;50.524;8.684;2023-12-29T05:56:17;98914.25;;;10.20;83.76
41202;BME280;26936;50.524;8.684;2023-12-29T05:58:43;98930.50;;;10.16;83.95
41202;BME280;26936;50.524;8.684;2023-12-29T06:01:08;98916.28;;;10.20;84.14
41202;BME280;26936;50.524;8.684;2023-12-29T06:03:34;98931.28;;;10.17;84.37
41202;BME280;26936;50.524;8.684;2023-12-29T06:05:59;98934.56;;;10.15;84.18
41202;BME280;26936;50.524;8.684;2023-12-29T06:08:24;98931.41;;;10.13;84.52
41202;BME280;26936;50.524;8.684;2023-12-29T06:10:50;98959.88;;;10.15;83.93
41202;BME280;26936;50.524;8.684;2023-12-29T06:13:15;98937.03;;;10.13;84.27
41202;BME280;26936;50.524;8.684;2023-12-29T06:15:40;98927.50;;;10.11;84.89
41202;BME280;26936;50.524;8.684;2023-12-29T06:18:05;98929.38;;;10.14;84.39
41202;BME280;26936;50.524;8.684;2023-12-29T06:20:31;98929.47;;;10.23;83.68
41202;BME280;26936;50.524;8.684;2023-12-29T06:22:56;98922.06;;;10.16;83.85
41202;BME280;26936;50.524;8.684;2023-12-29T06:25:21;98909.69;;;10.14;84.39
41202;BME280;26936;50.524;8.684;2023-12-29T06:27:47;98911.41;;;10.11;84.66
41202;BME280;26936;50.524;8.684;2023-12-29T06:30:13;98907.91;;;10.07;84.84
41202;BME280;26936;50.524;8.684;2023-12-29T06:32:38;98932.44;;;10.07;84.59
41202;BME280;26936;50.524;8.684;2023-12-29T06:35:05;98915.72;;;10.03;84.49
41202;BME280;26936;50.524;8.684;2023-12-29T06:37:30;98901.66;;;10.03;84.64
41202;BME280;26936;50.524;8.684;2023-12-29T06:39:56;98907.53;;;9.96;85.04
41202;BME280;26936;50.524;8.684;2023-12-29T06:42:21;98921.59;;;9.96;85.13
41202;BME280;26936;50.524;8.684;2023-12-29T06:44:47;98912.72;;;9.98;84.85
41202;BME280;26936;50.524;8.684;2023-12-29T06:47:13;98922.25;;;10.00;85.02
41202;BME280;26936;50.524;8.684;2023-12-29T06:49:39;98925.06;;;10.00;85.03
41202;BME280;26936;50.524;8.684;2023-12-29T06:52:04;98924.16;;;10.03;84.93
41202;BME280;26936;50.524;8.684;2023-12-29T06:54:29;98937.84;;;10.14;84.63
41202;BME280;26936;50.524;8.684;2023-12-29T06:56:55;98940.78;;;10.10;85.00
41202;BME280;26936;50.524;8.684;2023-12-29T06:59:22;98943.47;;;10.14;84.69
41202;BME280;26936;50.524;8.684;2023-12-29T07:01:47;98950.97;;;10.17;84.64
41202;BME280;26936;50.524;8.684;2023-12-29T07:04:13;98950.50;;;10.18;84.48
41202;BME280;26936;50.524;8.684;2023-12-29T07:06:38;98949.88;;;10.14;84.92
41202;BME280;26936;50.524;8.684;2023-12-29T07:09:04;98956.59;;;10.17;85.21
41202;BME280;26936;50.524;8.684;2023-12-29T07:11:30;98958.97;;;10.18;85.41
41202;BME280;26936;50.524;8.684;2023-12-29T07:13:55;98961.78;;;10.18;85.38
41202;BME280;26936;50.524;8.684;2023-12-29T07:16:21;98962.44;;;10.22;84.93
41202;BME280;26936;50.524;8.684;2023-12-29T07:18:47;98966.34;;;10.25;84.80
41202;BME280;26936;50.524;8.684;2023-12-29T07:21:12;98954.13;;;10.19;85.18
41202;BME280;26936;50.524;8.684;2023-12-29T07:23:38;98953.41;;;10.27;85.26
41202;BME280;26936;50.524;8.684;2023-12-29T07:26:04;98952.13;;;10.28;85.50
41202;BME280;26936;50.524;8.684;2023-12-29T07:28:29;98952.94;;;10.29;85.84
41202;BME280;26936;50.524;8.684;2023-12-29T07:30:55;98953.13;;;10.34;85.20
41202;BME280;26936;50.524;8.684;2023-12-29T07:33:20;98945.91;;;10.33;84.86
41202;BME280;26936;50.524;8.684;2023-12-29T07:35:45;98953.88;;;10.35;85.01
41202;BME280;26936;50.524;8.684;2023-12-29T07:38:10;98948.09;;;10.29;85.53
41202;BME280;26936;50.524;8.684;2023-12-29T07:40:36;98949.19;;;10.32;85.35
41202;BME280;26936;50.524;8.684;2023-12-29T07:43:01;98954.03;;;10.31;85.72
41202;BME280;26936;50.524;8.684;2023-12-29T07:45:26;98948.41;;;10.31;85.54
41202;BME280;26936;50.524;8.684;2023-12-29T07:47:52;98953.25;;;10.31;85.95
41202;BME280;26936;50.524;8.684;2023-12-29T07:50:17;98958.56;;;10.29;86.01
41202;BME280;26936;50.524;8.684;2023-12-29T07:52:43;98959.81;;;10.28;86.29
41202;BME280;26936;50.524;8.684;2023-12-29T07:55:09;98950.44;;;10.31;86.36
41202;BME280;26936;50.524;8.684;2023-12-29T07:57:34;98954.19;;;10.28;86.43
41202;BME280;26936;50.524;8.684;2023-12-29T08:00:01;98958.56;;;10.29;86.70
41202;BME280;26936;50.524;8.684;2023-12-29T08:02:26;98959.34;;;10.29;86.82
41202;BME280;26936;50.524;8.684;2023-12-29T08:04:52;98955.28;;;10.30;86.84
41202;BME280;26936;50.524;8.684;2023-12-29T08:07:18;98952.72;;;10.23;86.84
41202;BME280;26936;50.524;8.684;2023-12-29T08:09:43;98953.72;;;10.29;86.74
41202;BME280;26936;50.524;8.684;2023-12-29T08:12:09;98949.00;;;10.26;86.97
41202;BME280;26936;50.524;8.684;2023-12-29T08:14:34;98949.47;;;10.25;87.34
41202;BME280;26936;50.524;8.684;2023-12-29T08:16:59;98939.81;;;10.35;86.94
41202;BME280;26936;50.524;8.684;2023-12-29T08:19:25;98949.56;;;10.43;86.81
41202;BME280;26936;50.524;8.684;2023-12-29T08:21:51;98940.00;;;10.40;86.79
41202;BME280;26936;50.524;8.684;2023-12-29T08:24:16;98944.38;;;10.41;86.58
41202;BME280;26936;50.524;8.684;2023-12-29T08:26:44;98951.75;;;10.48;86.79
41202;BME280;26936;50.524;8.684;2023-12-29T08:29:10;98956.94;;;10.49;86.81
41202;BME280;26936;50.524;8.684;2023-12-29T08:31:36;98958.66;;;10.47;87.08
41202;BME280;26936;50.524;8.684;2023-12-29T08:34:01;98965.69;;;10.51;86.75
41202;BME280;26936;50.524;8.684;2023-12-29T08:36:26;98967.13;;;10.56;86.68
41202;BME280;26936;50.524;8.684;2023-12-29T08:38:51;98959.16;;;10.54;86.88
41202;BME280;26936;50.524;8.684;2023-12-29T08:41:20;98953.72;;;10.60;86.69
41202;BME280;26936;50.524;8.684;2023-12-29T08:43:46;98953.84;;;10.56;86.70
41202;BME280;26936;50.524;8.684;2023-12-29T08:46:11;98953.84;;;10.56;87.02
41202;BME280;26936;50.524;8.684;2023-12-29T08:48:36;98951.03;;;10.56;87.58
41202;BME280;26936;50.524;8.684;2023-12-29T08:51:04;98945.19;;;10.51;87.81
41202;BME280;26936;50.524;8.684;2023-12-29T08:53:30;98951.97;;;10.53;87.96
41202;BME280;26936;50.524;8.684;2023-12-29T08:55:59;98938.00;;;10.50;87.90
41202;BME280;26936;50.524;8.684;2023-12-29T08:58:24;98942.09;;;10.49;88.26
41202;BME280;26936;50.524;8.684;2023-12-29T09:00:49;98939.28;;;10.49;88.23
41202;BME280;26936;50.524;8.684;2023-12-29T09:03:15;98932.09;;;10.57;88.25
41202;BME280;26936;50.524;8.684;2023-12-29T09:05:40;98942.47;;;10.69;88.06
41202;BME280;26936;50.524;8.684;2023-12-29T09:08:05;98939.84;;;10.83;87.47
41202;BME280;26936;50.524;8.684;2023-12-29T09:10:30;98930.16;;;10.84;87.22
41202;BME280;26936;50.524;8.684;2023-12-29T09:12:56;98934.09;;;10.96;86.59
41202;BME280;26936;50.524;8.684;2023-12-29T09:15:21;98939.41;;;10.94;86.69
41202;BME280;26936;50.524;8.684;2023-12-29T09:17:46;98940.97;;;10.95;87.00
41202;BME280;26936;50.524;8.684;2023-12-29T09:20:12;98939.56;;;10.90;87.08
41202;BME280;26936;50.524;8.684;2023-12-29T09:22:37;98938.28;;;10.91;86.95
41202;BME280;26936;50.524;8.684;2023-12-29T09:25:03;98939.75;;;10.96;86.88
41202;BME280;26936;50.524;8.684;2023-12-29T09:27:28;98933.78;;;10.94;86.80
41202;BME280;26936;50.524;8.684;2023-12-29T09:29:54;98951.97;;;11.02;86.40
41202;BME280;26936;50.524;8.684;2023-12-29T09:32:19;98930.50;;;11.05;86.24
41202;BME280;26936;50.524;8.684;2023-12-29T09:34:44;98942.75;;;11.11;85.88
41202;BME280;26936;50.524;8.684;2023-12-29T09:37:10;98942.59;;;11.14;84.92
41202;BME280;26936;50.524;8.684;2023-12-29T09:39:37;98946.19;;;11.15;85.48
41202;BME280;26936;50.524;8.684;2023-12-29T09:42:03;98944.63;;;11.23;85.47
41202;BME280;26936;50.524;8.684;2023-12-29T09:44:31;98952.16;;;11.26;85.21
41202;BME280;26936;50.524;8.684;2023-12-29T09:47:01;98947.44;;;11.23;85.17
41202;BME280;26936;50.524;8.684;2023-12-29T09:49:31;98950.91;;;11.27;85.23
41202;BME280;26936;50.524;8.684;2023-12-29T09:52:02;98950.13;;;11.26;84.95
41202;BME280;26936;50.524;8.684;2023-12-29T09:54:27;98960.31;;;11.33;84.84
41202;BME280;26936;50.524;8.684;2023-12-29T09:56:53;98954.22;;;11.43;83.95
41202;BME280;26936;50.524;8.684;2023-12-29T09:59:19;98966.13;;;11.38;84.19
41202;BME280;26936;50.524;8.684;2023-12-29T10:01:46;98962.69;;;11.43;83.90
41202;BME280;26936;50.524;8.684;2023-12-29T10:04:11;98954.53;;;11.54;83.59
41202;BME280;26936;50.524;8.684;2023-12-29T10:06:40;98977.25;;;11.51;83.74
41202;BME280;26936;50.524;8.684;2023-12-29T10:09:07;98962.06;;;11.48;83.28
41202;BME280;26936;50.524;8.684;2023-12-29T10:11:37;98971.44;;;11.54;82.83
41202;BME280;26936;50.524;8.684;2023-12-29T10:14:11;98966.72;;;11.42;83.17
41202;BME280;26936;50.524;8.684;2023-12-29T10:16:43;98964.41;;;11.50;83.45
41202;BME280;26936;50.524;8.684;2023-12-29T10:19:17;98968.94;;;11.47;83.17
41202;BME280;26936;50.524;8.684;2023-12-29T10:22:02;98963.00;;;11.63;82.85
41202;BME280;26936;50.524;8.684;2023-12-29T10:24:30;98949.34;;;11.62;82.87
41202;BME280;26936;50.524;8.684;2023-12-29T10:26:56;98955.16;;;11.58;83.32
41202;BME280;26936;50.524;8.684;2023-12-29T10:29:21;98954.97;;;11.44;83.86
41202;BME280;26936;50.524;8.684;2023-12-29T10:31:47;98948.44;;;11.47;84.19
41202;BME280;26936;50.524;8.684;2023-12-29T10:34:24;98943.41;;;11.42;84.30
41202;BME280;26936;50.524;8.684;2023-12-29T10:36:58;98954.06;;;11.47;83.96
41202;BME280;26936;50.524;8.684;2023-12-29T10:39:24;98929.59;;;11.44;84.46
41202;BME280;26936;50.524;8.684;2023-12-29T10:41:50;98946.53;;;11.53;84.33
41202;BME280;26936;50.524;8.684;2023-12-29T10:44:16;98954.03;;;11.38;84.64
41202;BME280;26936;50.524;8.684;2023-12-29T10:46:41;98941.66;;;11.44;84.28
41202;BME280;26936;50.524;8.684;2023-12-29T10:49:11;98955.91;;;11.41;84.50
41202;BME280;26936;50.524;8.684;2023-12-29T10:51:37;98952.47;;;11.46;84.37
41202;BME280;26936;50.524;8.684;2023-12-29T10:54:03;98960.94;;;11.46;84.56
41202;BME280;26936;50.524;8.684;2023-12-29T10:56:29;98954.53;;;11.54;84.40
41202;BME280;26936;50.524;8.684;2023-12-29T10:59:03;98943.25;;;11.54;83.81
41202;BME280;26936;50.524;8.684;2023-12-29T11:01:30;98947.94;;;11.57;83.84
41202;BME280;26936;50.524;8.684;2023-12-29T11:04:05;98952.50;;;11.55;83.64
41202;BME280;26936;50.524;8.684;2023-12-29T11:06:44;98949.22;;;11.56;83.73
41202;BME280;26936;50.524;8.684;2023-12-29T11:09:12;98941.25;;;11.64;83.08
41202;BME280;26936;50.524;8.684;2023-12-29T11:11:38;98939.16;;;11.55;83.51
41202;BME280;26936;50.524;8.684;2023-12-29T11:14:04;98951.53;;;11.49;83.72
41202;BME280;26936;50.524;8.684;2023-12-29T11:16:30;98942.31;;;11.57;83.58
41202;BME280;26936;50.524;8.684;2023-12-29T11:18:57;98941.81;;;11.59;83.38
41202;BME280;26936;50.524;8.684;2023-12-29T11:21:26;98944.19;;;11.60;83.19
41202;BME280;26936;50.524;8.684;2023-12-29T11:23:51;98929.00;;;11.67;82.22
41202;BME280;26936;50.524;8.684;2023-12-29T11:26:16;98938.25;;;11.85;82.64
41202;BME280;26936;50.524;8.684;2023-12-29T11:28:43;98938.56;;;11.78;81.90
41202;BME280;26936;50.524;8.684;2023-12-29T11:31:11;98932.59;;;11.85;81.37
41202;BME280;26936;50.524;8.684;2023-12-29T11:33:41;98942.16;;;11.88;81.64
41202;BME280;26936;50.524;8.684;2023-12-29T11:41:09;98923.66;;;11.87;80.25
41202;BME280;26936;50.524;8.684;2023-12-29T11:43:37;98946.06;;;11.99;80.04
41202;BME280;26936;50.524;8.684;2023-12-29T11:46:03;98940.56;;;11.96;79.56
41202;BME280;26936;50.524;8.684;2023-12-29T11:48:53;98929.13;;;12.08;80.27
41202;BME280;26936;50.524;8.684;2023-12-29T11:51:34;98927.72;;;12.04;79.94
41202;BME280;26936;50.524;8.684;2023-12-29T11:54:01;98913.53;;;12.22;79.44
41202;BME280;26936;50.524;8.684;2023-12-29T11:56:31;98915.59;;;12.21;78.91
41202;BME280;26936;50.524;8.684;2023-12-29T11:59:12;98916.06;;;12.20;80.47
41202;BME280;26936;50.524;8.684;2023-12-29T12:01:37;98906.19;;;12.15;79.28
41202;BME280;26936;50.524;8.684;2023-12-29T12:04:03;98909.63;;;12.19;78.65
41202;BME280;26936;50.524;8.684;2023-12-29T12:06:38;98900.78;;;12.36;79.08
41202;BME280;26936;50.524;8.684;2023-12-29T12:09:17;98900.97;;;12.32;78.89
41202;BME280;26936;50.524;8.684;2023-12-29T12:11:48;98900.31;;;12.37;79.24
41202;BME280;26936;50.524;8.684;2023-12-29T12:14:47;98921.25;;;12.21;78.65
41202;BME280;26936;50.524;8.684;2023-12-29T12:17:34;98901.97;;;12.20;78.43
41202;BME280;26936;50.524;8.684;2023-12-29T12:20:07;98899.47;;;12.13;79.75
41202;BME280;26936;50.524;8.684;2023-12-29T12:22:36;98896.69;;;12.04;78.84
41202;BME280;26936;50.524;8.684;2023-12-29T12:25:03;98904.19;;;11.98;78.65
41202;BME280;26936;50.524;8.684;2023-12-29T12:27:30;98911.44;;;11.90;78.79
41202;BME280;26936;50.524;8.684;2023-12-29T12:29:56;98910.94;;;11.91;78.80
41202;BME280;26936;50.524;8.684;2023-12-29T12:32:24;98915.16;;;11.96;78.37
41202;BME280;26936;50.524;8.684;2023-12-29T12:34:49;98899.66;;;12.00;78.36
41202;BME280;26936;50.524;8.684;2023-12-29T12:37:20;98891.63;;;12.08;78.80
41202;BME280;26936;50.524;8.684;2023-12-29T12:39:45;98897.44;;;12.04;78.98
41202;BME280;26936;50.524;8.684;2023-12-29T12:42:10;98896.53;;;11.98;78.41
41202;BME280;26936;50.524;8.684;2023-12-29T12:44:40;98896.84;;;12.00;78.74
41202;BME280;26936;50.524;8.684;2023-12-29T12:47:09;98894.19;;;11.97;78.81
41202;BME280;26936;50.524;8.684;2023-12-29T12:49:38;98884.31;;;11.92;79.38
41202;BME280;26936;50.524;8.684;2023-12-29T12:52:03;98882.84;;;12.06;78.29
41202;BME280;26936;50.524;8.684;2023-12-29T12:54:29;98883.31;;;12.04;78.07
41202;BME280;26936;50.524;8.684;2023-12-29T12:56:54;98883.63;;;12.06;78.26
41202;BME280;26936;50.524;8.684;2023-12-29T12:59:20;98876.59;;;12.02;78.96
41202;BME280;26936;50.524;8.684;2023-12-29T13:01:46;98886.78;;;12.08;79.07
41202;BME280;26936;50.524;8.684;2023-12-29T13:04:12;98882.69;;;12.09;78.97
41202;BME280;26936;50.524;8.684;2023-12-29T13:06:41;98877.53;;;12.08;78.39
41202;BME280;26936;50.524;8.684;2023-12-29T13:09:08;98875.66;;;11.96;78.80